Time;durP1;ratioP1;P1;durP2;ratioP2;P2;SDS_P1;SDS_P2;PMS_P1;PMS_P2;Temp;Humidity;BMP_temperature;BMP_pressure;BME280_temperature;BME280_humidity;BME280_pressure;Samples;Min_cycle;Max_cycle;Signal;HPM_P1;HPM_P2
2020/12/26 00:00:53;;;;;;;17.52;8.95;;;0.30;99.90;;;;;;5018251;28;20032;-74
2020/12/26 00:03:19;;;;;;;19.48;8.70;;;0.20;99.90;;;;;;5017886;28;20030;-74
2020/12/26 00:05:46;;;;;;;17.85;7.93;;;0.20;99.90;;;;;;5016483;28;20048;-74
2020/12/26 00:08:13;;;;;;;17.20;9.50;;;0.30;99.90;;;;;;5018241;28;20479;-74
2020/12/26 00:10:39;;;;;;;14.80;9.65;;;0.40;99.90;;;;;;5015140;28;20046;-74
2020/12/26 00:13:05;;;;;;;14.80;7.28;;;0.40;99.90;;;;;;5014028;28;20472;-74
2020/12/26 00:15:31;;;;;;;13.18;7.85;;;0.40;99.90;;;;;;5014168;28;20034;-74
2020/12/26 00:17:58;;;;;;;15.35;8.63;;;0.40;99.90;;;;;;5014742;28;20046;-74
2020/12/26 00:20:24;;;;;;;18.98;8.57;;;0.40;99.90;;;;;;5014908;28;20034;-74
2020/12/26 00:22:50;;;;;;;15.45;8.23;;;0.40;99.90;;;;;;5013940;28;20030;-74
2020/12/26 00:25:16;;;;;;;12.52;7.40;;;0.40;99.90;;;;;;5013921;28;20046;-74
2020/12/26 00:27:43;;;;;;;21.52;13.15;;;0.40;99.90;;;;;;5014624;28;20434;-74
2020/12/26 00:30:11;;;;;;;19.40;8.48;;;0.30;99.90;;;;;;5014472;28;20044;-74
2020/12/26 00:32:37;;;;;;;19.38;7.75;;;0.30;99.90;;;;;;5015463;28;20372;-73
2020/12/26 00:35:04;;;;;;;17.52;7.43;;;0.30;99.90;;;;;;5014610;28;20505;-74
2020/12/26 00:37:30;;;;;;;24.00;12.32;;;0.30;99.90;;;;;;5014121;28;20030;-74
2020/12/26 00:39:56;;;;;;;20.38;10.80;;;0.20;99.90;;;;;;5014788;28;20490;-74
2020/12/26 00:42:23;;;;;;;16.40;8.40;;;0.20;99.90;;;;;;5013825;28;20391;-74
2020/12/26 00:44:49;;;;;;;21.55;12.38;;;0.20;99.90;;;;;;5014242;28;20067;-73
2020/12/26 00:47:15;;;;;;;29.42;14.50;;;0.20;99.90;;;;;;5012849;28;20411;-74
2020/12/26 00:49:47;;;;;;;28.10;14.07;;;0.20;99.90;;;;;;5013371;28;20053;-74
2020/12/26 00:52:13;;;;;;;33.92;16.58;;;0.30;99.90;;;;;;5014543;28;20037;-74
2020/12/26 00:54:42;;;;;;;33.83;15.48;;;0.30;99.90;;;;;;5020937;28;20052;-74
2020/12/26 00:57:08;;;;;;;28.98;14.43;;;0.30;99.90;;;;;;5029398;28;20042;-74
2020/12/26 00:59:35;;;;;;;26.08;12.57;;;0.40;99.90;;;;;;5013428;28;20387;-74
2020/12/26 01:02:02;;;;;;;24.73;10.93;;;0.30;99.90;;;;;;5012599;28;20034;-74
2020/12/26 01:04:37;;;;;;;19.67;10.15;;;0.30;99.90;;;;;;4998087;28;20057;-74
2020/12/26 01:07:03;;;;;;;18.40;9.93;;;0.20;99.90;;;;;;5020384;28;20192;-73
2020/12/26 01:09:30;;;;;;;16.23;9.35;;;0.10;99.90;;;;;;5025640;28;20042;-74
2020/12/26 01:11:56;;;;;;;24.10;10.98;;;0.10;99.90;;;;;;5014653;28;20034;-74
2020/12/26 01:14:22;;;;;;;18.70;8.65;;;0.10;99.90;;;;;;5015119;28;20046;-74
2020/12/26 01:16:50;;;;;;;16.58;9.27;;;0.00;99.90;;;;;;5015374;28;20594;-74
2020/12/26 01:19:17;;;;;;;24.80;10.48;;;0.00;99.90;;;;;;4996799;28;20049;-76
2020/12/26 01:21:52;;;;;;;18.92;9.27;;;0.00;99.90;;;;;;5022090;28;20383;-74
2020/12/26 01:24:18;;;;;;;16.60;9.25;;;0.10;99.90;;;;;;5013844;28;20041;-76
2020/12/26 01:26:48;;;;;;;23.63;11.48;;;0.10;99.90;;;;;;5013627;28;20052;-73
2020/12/26 01:29:15;;;;;;;20.10;10.57;;;0.20;99.90;;;;;;5014880;28;20042;-73
2020/12/26 01:31:42;;;;;;;20.45;9.65;;;0.10;99.90;;;;;;5012192;28;20490;-73
2020/12/26 01:34:09;;;;;;;21.58;10.27;;;0.10;99.90;;;;;;5026426;28;20486;-73
2020/12/26 01:36:35;;;;;;;27.20;11.30;;;0.00;99.90;;;;;;5012597;28;20046;-73
2020/12/26 01:39:02;;;;;;;20.77;10.00;;;0.00;99.90;;;;;;5013714;28;20038;-73
2020/12/26 01:41:28;;;;;;;19.80;10.13;;;0.00;99.90;;;;;;5012556;28;20045;-75
2020/12/26 01:44:00;;;;;;;17.58;8.80;;;0.00;99.90;;;;;;5011832;28;20423;-73
2020/12/26 01:46:29;;;;;;;16.98;9.00;;;0.00;99.90;;;;;;5013753;28;20105;-76
2020/12/26 01:48:56;;;;;;;22.50;10.57;;;-0.10;99.90;;;;;;5013321;28;20034;-73
2020/12/26 01:51:28;;;;;;;26.48;11.25;;;-0.10;99.90;;;;;;5013525;28;20037;-73
2020/12/26 01:53:54;;;;;;;19.40;11.05;;;-0.20;99.90;;;;;;5013293;28;20458;-74
2020/12/26 01:56:21;;;;;;;26.60;11.02;;;-0.20;99.90;;;;;;5013724;28;20038;-74
2020/12/26 01:58:48;;;;;;;22.42;10.93;;;-0.20;99.90;;;;;;5013528;28;20486;-74
2020/12/26 02:01:14;;;;;;;23.40;10.68;;;-0.30;99.90;;;;;;4996384;28;20042;-73
2020/12/26 02:03:40;;;;;;;20.10;8.57;;;-0.30;99.90;;;;;;5011998;28;20049;-73
2020/12/26 02:06:07;;;;;;;21.63;11.10;;;-0.20;99.90;;;;;;5011726;28;20052;-73
2020/12/26 02:08:35;;;;;;;21.05;10.68;;;-0.10;99.90;;;;;;5012885;28;20026;-73
2020/12/26 02:11:04;;;;;;;20.00;10.85;;;-0.10;99.90;;;;;;5014039;28;20034;-73
2020/12/26 02:13:31;;;;;;;23.52;10.77;;;-0.10;99.90;;;;;;5011214;28;20034;-74
2020/12/26 02:16:05;;;;;;;22.33;9.23;;;-0.10;99.90;;;;;;5011358;28;20402;-73
2020/12/26 02:18:35;;;;;;;25.98;11.50;;;-0.10;99.90;;;;;;5011671;28;20053;-74
2020/12/26 02:21:02;;;;;;;30.40;11.85;;;0.00;99.90;;;;;;5013653;28;20037;-73
2020/12/26 02:23:29;;;;;;;21.67;12.20;;;0.00;99.90;;;;;;5027433;28;20034;-76
2020/12/26 02:25:58;;;;;;;22.27;11.07;;;0.10;99.90;;;;;;5011871;28;20479;-75
2020/12/26 02:28:25;;;;;;;26.63;12.82;;;0.20;99.90;;;;;;5012466;28;20037;-74
2020/12/26 02:30:52;;;;;;;20.17;11.77;;;0.20;99.90;;;;;;5011475;28;20038;-73
2020/12/26 02:33:19;;;;;;;24.70;12.35;;;0.30;99.90;;;;;;5012544;28;20034;-73
2020/12/26 02:35:48;;;;;;;24.65;12.20;;;0.30;99.90;;;;;;4994506;28;20038;-73
2020/12/26 02:38:17;;;;;;;20.08;11.57;;;0.30;99.90;;;;;;5011828;28;20399;-73
2020/12/26 02:40:46;;;;;;;22.33;10.90;;;0.30;99.90;;;;;;5011818;28;20045;-73
2020/12/26 02:43:21;;;;;;;22.95;10.93;;;0.30;99.90;;;;;;5012092;28;20034;-73
2020/12/26 02:45:49;;;;;;;21.70;11.95;;;0.30;99.90;;;;;;5011775;28;20040;-74
2020/12/26 02:48:15;;;;;;;31.48;15.98;;;0.30;99.90;;;;;;5010782;28;20057;-74
2020/12/26 02:50:42;;;;;;;26.05;14.00;;;0.30;99.90;;;;;;5010580;28;20044;-75
2020/12/26 02:53:09;;;;;;;24.25;13.77;;;0.30;99.90;;;;;;5011812;28;20390;-73
2020/12/26 02:55:36;;;;;;;24.90;12.80;;;0.20;99.90;;;;;;5011658;28;20467;-73
2020/12/26 02:58:03;;;;;;;24.08;12.98;;;0.20;99.90;;;;;;5012002;28;20493;-73
2020/12/26 03:00:30;;;;;;;24.13;12.60;;;0.20;99.90;;;;;;5011915;28;20034;-74
2020/12/26 03:02:56;;;;;;;38.10;20.80;;;0.20;99.90;;;;;;5012445;28;20420;-73
2020/12/26 03:05:22;;;;;;;32.22;20.02;;;0.20;99.90;;;;;;5012140;28;20057;-72
2020/12/26 03:07:48;;;;;;;35.17;17.15;;;0.20;99.90;;;;;;5012377;28;20034;-73
2020/12/26 03:10:15;;;;;;;29.30;15.52;;;0.30;99.90;;;;;;5019803;28;20053;-73
2020/12/26 03:12:41;;;;;;;39.75;16.38;;;0.30;99.90;;;;;;5011868;28;20034;-73
2020/12/26 03:15:07;;;;;;;87.45;56.08;;;0.30;99.90;;;;;;5028319;28;20049;-73
2020/12/26 03:17:34;;;;;;;40.53;26.40;;;0.30;99.90;;;;;;4994786;28;20069;-74
2020/12/26 03:20:01;;;;;;;35.08;20.25;;;0.30;99.90;;;;;;5012079;28;20030;-74
2020/12/26 03:22:28;;;;;;;32.75;19.75;;;0.30;99.90;;;;;;5011798;28;20042;-73
2020/12/26 03:24:57;;;;;;;29.63;17.65;;;0.30;99.90;;;;;;5011017;28;20042;-73
2020/12/26 03:27:24;;;;;;;28.73;15.82;;;0.30;99.90;;;;;;5030232;28;20509;-75
2020/12/26 03:29:51;;;;;;;29.42;15.57;;;0.30;99.90;;;;;;5011981;28;20041;-74
2020/12/26 03:32:18;;;;;;;24.20;14.63;;;0.40;99.90;;;;;;5011402;28;20046;-73
2020/12/26 03:34:44;;;;;;;29.08;15.23;;;0.40;99.90;;;;;;5010123;28;20041;-73
2020/12/26 03:37:11;;;;;;;26.55;15.50;;;0.40;99.90;;;;;;5012144;28;20506;-73
2020/12/26 03:39:37;;;;;;;26.75;15.98;;;0.40;99.90;;;;;;5010578;28;20069;-74
2020/12/26 03:42:05;;;;;;;27.98;15.18;;;0.40;99.90;;;;;;5012139;28;20029;-73
2020/12/26 03:44:31;;;;;;;26.45;14.25;;;0.30;99.90;;;;;;5011746;28;20033;-76
2020/12/26 03:46:58;;;;;;;31.92;15.68;;;0.30;99.90;;;;;;5013478;28;20053;-74
2020/12/26 03:49:25;;;;;;;25.75;14.93;;;0.30;99.90;;;;;;5016380;28;20033;-73
2020/12/26 03:51:51;;;;;;;31.65;15.65;;;0.30;99.90;;;;;;5031069;28;20033;-73
2020/12/26 03:54:18;;;;;;;26.98;15.23;;;0.30;99.90;;;;;;5013894;28;20061;-73
2020/12/26 03:56:44;;;;;;;28.35;14.02;;;0.30;99.90;;;;;;5014879;28;20042;-74
2020/12/26 03:59:10;;;;;;;30.90;15.35;;;0.40;99.90;;;;;;5013572;28;20053;-73
2020/12/26 04:01:37;;;;;;;31.48;16.17;;;0.40;99.90;;;;;;5013933;28;20045;-74
2020/12/26 04:04:04;;;;;;;28.77;16.15;;;0.40;99.90;;;;;;5013842;28;20471;-73
2020/12/26 04:06:30;;;;;;;23.90;15.45;;;0.40;99.90;;;;;;5015615;28;20029;-76
2020/12/26 04:08:56;;;;;;;33.95;17.27;;;0.40;99.90;;;;;;5015566;28;20482;-74
2020/12/26 04:11:23;;;;;;;32.70;18.02;;;0.40;99.90;;;;;;5015264;28;20030;-74
2020/12/26 04:13:49;;;;;;;30.63;16.05;;;0.40;99.90;;;;;;5014692;28;20022;-73
2020/12/26 04:16:16;;;;;;;27.20;15.48;;;0.40;99.90;;;;;;5013264;28;20414;-74
2020/12/26 04:18:42;;;;;;;27.52;14.90;;;0.40;99.90;;;;;;5014748;28;20042;-73
2020/12/26 04:21:08;;;;;;;27.77;14.07;;;0.40;99.90;;;;;;5014659;28;20042;-73
2020/12/26 04:23:35;;;;;;;22.45;14.40;;;0.40;99.90;;;;;;5014062;28;20391;-74
2020/12/26 04:26:01;;;;;;;26.58;15.13;;;0.40;99.90;;;;;;5014323;28;20054;-74
2020/12/26 04:28:28;;;;;;;31.73;14.18;;;0.30;99.90;;;;;;5013703;28;20380;-73
2020/12/26 04:30:54;;;;;;;24.77;13.07;;;0.30;99.90;;;;;;5014595;28;20045;-74
2020/12/26 04:33:21;;;;;;;22.13;12.68;;;0.30;99.90;;;;;;5014693;28;20026;-73
2020/12/26 04:35:47;;;;;;;56.60;23.25;;;0.30;99.90;;;;;;5014578;28;20037;-73
2020/12/26 04:38:13;;;;;;;49.13;22.67;;;0.20;99.90;;;;;;5015281;28;20034;-73
2020/12/26 04:40:40;;;;;;;29.83;15.45;;;0.30;99.90;;;;;;5014028;28;20026;-73
2020/12/26 04:43:06;;;;;;;26.88;13.88;;;0.30;99.90;;;;;;5014562;28;20037;-73
2020/12/26 04:45:33;;;;;;;32.65;14.48;;;0.40;99.90;;;;;;5013955;28;20047;-74
2020/12/26 04:48:05;;;;;;;31.35;14.52;;;0.40;99.90;;;;;;5014544;28;20455;-73
2020/12/26 04:50:34;;;;;;;75.22;34.13;;;0.40;99.90;;;;;;5013823;28;20030;-77
2020/12/26 04:53:04;;;;;;;77.35;36.05;;;0.40;99.90;;;;;;4996700;28;20045;-73
2020/12/26 04:55:33;;;;;;;37.85;19.80;;;0.40;99.90;;;;;;5014225;28;20050;-76
2020/12/26 04:58:10;;;;;;;32.67;18.05;;;0.40;99.90;;;;;;5029087;28;20038;-73
2020/12/26 05:00:38;;;;;;;35.50;17.77;;;0.40;99.90;;;;;;5012928;28;20034;-74
2020/12/26 05:03:07;;;;;;;31.10;16.80;;;0.40;99.90;;;;;;5015195;28;20030;-74
2020/12/26 05:05:41;;;;;;;34.15;18.80;;;0.40;99.90;;;;;;5013339;28;20045;-75
2020/12/26 05:08:12;;;;;;;37.83;19.65;;;0.40;99.90;;;;;;5013971;28;20041;-74
2020/12/26 05:10:39;;;;;;;34.55;17.58;;;0.50;99.90;;;;;;5013363;28;20045;-74
2020/12/26 05:13:09;;;;;;;45.03;23.50;;;0.50;99.90;;;;;;5012691;28;20030;-74
2020/12/26 05:15:36;;;;;;;67.95;34.55;;;0.50;99.90;;;;;;5013217;28;20030;-74
2020/12/26 05:18:03;;;;;;;46.88;23.45;;;0.50;99.90;;;;;;5013213;28;20057;-74
2020/12/26 05:20:30;;;;;;;42.17;24.30;;;0.50;99.90;;;;;;5029140;28;20026;-74
2020/12/26 05:23:10;;;;;;;28.58;17.27;;;0.50;99.90;;;;;;5012960;28;20034;-73
2020/12/26 05:25:40;;;;;;;42.58;21.80;;;0.50;99.90;;;;;;5011250;28;20049;-74
2020/12/26 05:28:14;;;;;;;34.05;17.52;;;0.50;99.90;;;;;;5012239;28;20066;-73
2020/12/26 05:30:43;;;;;;;27.83;15.23;;;0.50;99.90;;;;;;5013267;28;20041;-74
2020/12/26 05:33:10;;;;;;;26.70;15.52;;;0.50;99.90;;;;;;5013499;28;20034;-74
2020/12/26 05:35:39;;;;;;;31.33;16.35;;;0.60;99.90;;;;;;5012727;28;20041;-74
2020/12/26 05:38:22;;;;;;;30.80;16.88;;;0.60;99.90;;;;;;5013246;28;20034;-74
2020/12/26 05:41:09;;;;;;;32.35;17.20;;;0.60;99.90;;;;;;5013250;28;20030;-73
2020/12/26 05:43:35;;;;;;;34.20;16.25;;;0.60;99.90;;;;;;5013027;28;20030;-74
2020/12/26 05:46:01;;;;;;;29.65;15.70;;;0.70;99.90;;;;;;5013375;28;20033;-74
2020/12/26 05:48:28;;;;;;;31.25;16.05;;;0.70;99.90;;;;;;5013512;28;20041;-74
2020/12/26 05:50:57;;;;;;;28.23;15.18;;;0.70;99.90;;;;;;5012937;28;20038;-74
2020/12/26 05:53:25;;;;;;;31.25;16.60;;;0.70;99.90;;;;;;5013062;28;20144;-74
2020/12/26 05:55:52;;;;;;;27.20;14.48;;;0.70;99.90;;;;;;5012133;28;20034;-74
2020/12/26 05:58:23;;;;;;;30.85;16.23;;;0.70;99.90;;;;;;5012898;28;20041;-74
2020/12/26 06:00:51;;;;;;;24.50;14.85;;;0.80;99.90;;;;;;5011549;28;20053;-75
2020/12/26 06:03:33;;;;;;;24.90;14.90;;;0.80;99.90;;;;;;5013289;28;20037;-74
2020/12/26 06:06:05;;;;;;;25.83;14.75;;;0.90;99.90;;;;;;5011779;28;20053;-74
2020/12/26 06:08:32;;;;;;;29.35;14.98;;;0.90;99.90;;;;;;5012482;28;20034;-76
2020/12/26 06:10:59;;;;;;;25.98;14.57;;;0.90;99.90;;;;;;5012990;28;20459;-74
2020/12/26 06:13:27;;;;;;;26.77;15.60;;;0.90;99.90;;;;;;5013051;28;20030;-74
2020/12/26 06:16:01;;;;;;;23.92;15.25;;;0.90;99.90;;;;;;5012265;28;20045;-74
2020/12/26 06:18:31;;;;;;;24.60;14.00;;;0.90;99.90;;;;;;5012336;28;20050;-74
2020/12/26 06:20:58;;;;;;;27.50;13.85;;;0.90;99.90;;;;;;5012760;28;20037;-74
2020/12/26 06:23:24;;;;;;;25.70;14.60;;;0.90;99.90;;;;;;5012876;28;20052;-74
2020/12/26 06:25:52;;;;;;;24.80;13.43;;;0.90;99.90;;;;;;5011540;28;20057;-74
2020/12/26 06:28:26;;;;;;;21.02;12.32;;;0.90;99.90;;;;;;5012809;28;20376;-74
2020/12/26 06:31:01;;;;;;;22.35;12.93;;;0.90;99.90;;;;;;4995232;28;20053;-74
2020/12/26 06:33:31;;;;;;;24.58;13.15;;;0.80;99.90;;;;;;5012976;28;20038;-74
2020/12/26 06:35:58;;;;;;;24.42;14.18;;;0.90;99.90;;;;;;5011165;28;20487;-74
2020/12/26 06:38:28;;;;;;;24.70;13.75;;;0.80;99.90;;;;;;5011316;28;20476;-75
2020/12/26 06:40:56;;;;;;;24.83;14.43;;;0.80;99.90;;;;;;5031149;28;20033;-74
2020/12/26 06:43:47;;;;;;;21.90;13.38;;;0.90;99.90;;;;;;5014221;28;20034;-74
2020/12/26 06:46:14;;;;;;;24.20;12.68;;;0.90;99.90;;;;;;5012687;28;20030;-74
2020/12/26 06:48:41;;;;;;;25.30;13.85;;;0.90;99.90;;;;;;5011924;28;20041;-74
2020/12/26 06:51:41;;;;;;;21.88;14.00;;;0.90;99.90;;;;;;5012586;28;20025;-74
2020/12/26 06:54:08;;;;;;;25.88;14.20;;;0.90;99.90;;;;;;5013242;28;20034;-73
2020/12/26 06:56:34;;;;;;;26.30;14.32;;;0.90;99.90;;;;;;5011766;28;20041;-75
2020/12/26 06:59:02;;;;;;;24.88;14.07;;;0.90;99.90;;;;;;5011103;28;20050;-74
2020/12/26 07:01:29;;;;;;;24.75;13.88;;;0.90;99.90;;;;;;5022924;28;20464;-74
2020/12/26 07:04:11;;;;;;;29.75;14.32;;;0.90;99.90;;;;;;5010745;28;20042;-75
2020/12/26 07:06:38;;;;;;;22.33;13.95;;;0.80;99.90;;;;;;5012066;28;20044;-74
2020/12/26 07:09:05;;;;;;;28.30;14.60;;;0.80;99.90;;;;;;5025102;28;20034;-74
2020/12/26 07:11:41;;;;;;;26.35;13.68;;;0.70;99.90;;;;;;5026808;28;20034;-76
2020/12/26 07:14:07;;;;;;;29.88;15.13;;;0.70;99.90;;;;;;4996690;28;20052;-74
2020/12/26 07:16:38;;;;;;;34.88;14.82;;;0.70;99.90;;;;;;5011919;28;20037;-75
2020/12/26 07:19:19;;;;;;;27.95;14.40;;;0.70;99.90;;;;;;5006738;28;20392;-76
2020/12/26 07:21:48;;;;;;;27.92;13.57;;;0.80;99.90;;;;;;5014305;28;20365;-74
2020/12/26 07:24:27;;;;;;;28.42;14.65;;;0.80;99.90;;;;;;5016123;28;20026;-74
2020/12/26 07:26:53;;;;;;;23.70;13.65;;;0.80;99.90;;;;;;5014630;28;20042;-73
2020/12/26 07:29:26;;;;;;;29.55;14.90;;;0.80;99.90;;;;;;5014751;28;20033;-74
2020/12/26 07:31:54;;;;;;;28.17;14.48;;;0.80;99.90;;;;;;5015561;28;20033;-73
2020/12/26 07:34:41;;;;;;;29.83;15.32;;;0.80;99.90;;;;;;5015687;28;20141;-73
2020/12/26 07:37:07;;;;;;;28.40;15.38;;;0.80;99.90;;;;;;5016244;28;20038;-76
2020/12/26 07:39:43;;;;;;;25.98;13.98;;;0.90;99.90;;;;;;5015862;28;20038;-77
2020/12/26 07:42:10;;;;;;;26.25;14.25;;;0.90;99.90;;;;;;5015454;28;20029;-74
2020/12/26 07:44:38;;;;;;;26.23;15.43;;;0.90;99.90;;;;;;5017857;28;20032;-74
2020/12/26 07:47:06;;;;;;;27.05;15.20;;;0.90;99.90;;;;;;5030841;28;20500;-73
2020/12/26 07:49:33;;;;;;;23.83;13.90;;;0.90;99.90;;;;;;5023717;28;20041;-76
2020/12/26 07:52:03;;;;;;;29.33;15.57;;;0.90;99.90;;;;;;5014886;28;20037;-73
2020/12/26 07:54:30;;;;;;;23.23;14.10;;;0.90;99.90;;;;;;5014015;28;20045;-73
2020/12/26 07:56:56;;;;;;;23.88;13.48;;;1.00;99.90;;;;;;5013837;28;20049;-73
2020/12/26 07:59:24;;;;;;;22.55;14.85;;;1.00;99.90;;;;;;5008409;28;20046;-73
2020/12/26 08:01:54;;;;;;;25.05;14.15;;;1.00;99.90;;;;;;5015253;28;20060;-74
2020/12/26 08:04:21;;;;;;;24.20;13.63;;;1.00;99.90;;;;;;5015420;28;20033;-73
2020/12/26 08:06:49;;;;;;;26.23;14.98;;;1.00;99.90;;;;;;5014527;28;20288;-73
2020/12/26 08:09:17;;;;;;;26.70;13.20;;;1.00;99.90;;;;;;5014666;28;20033;-74
2020/12/26 08:11:44;;;;;;;19.92;12.82;;;1.10;99.90;;;;;;5022689;28;20030;-74
2020/12/26 08:14:13;;;;;;;27.33;12.38;;;1.10;99.90;;;;;;5014668;28;20501;-74
2020/12/26 08:16:40;;;;;;;24.65;12.80;;;1.10;99.90;;;;;;5014385;28;20068;-74
2020/12/26 08:19:06;;;;;;;21.92;12.23;;;1.10;99.90;;;;;;5013177;28;20053;-73
2020/12/26 08:21:33;;;;;;;21.88;13.02;;;1.20;99.90;;;;;;5014640;28;20025;-75
2020/12/26 08:24:02;;;;;;;25.83;13.32;;;1.20;99.90;;;;;;5013705;28;20403;-73
2020/12/26 08:26:31;;;;;;;24.45;12.93;;;1.30;99.90;;;;;;5014966;28;20057;-74
2020/12/26 08:29:01;;;;;;;22.23;12.52;;;1.30;99.90;;;;;;5027683;28;20053;-75
2020/12/26 08:31:29;;;;;;;22.67;12.98;;;1.30;99.90;;;;;;5013656;28;20387;-79
2020/12/26 08:34:19;;;;;;;20.70;12.30;;;1.40;99.90;;;;;;5014633;28;20033;-78
2020/12/26 08:36:55;;;;;;;26.73;16.50;;;1.40;99.90;;;;;;5014064;28;20080;-78
2020/12/26 08:39:24;;;;;;;31.42;17.80;;;1.50;99.90;;;;;;5015474;28;20371;-78
2020/12/26 08:41:53;;;;;;;27.17;15.40;;;1.60;99.90;;;;;;5017491;28;20030;-78
2020/12/26 08:44:20;;;;;;;138.85;63.63;;;1.60;99.90;;;;;;5014672;28;20030;-78
2020/12/26 08:46:47;;;;;;;68.50;30.63;;;1.70;99.90;;;;;;5033935;28;20360;-78
2020/12/26 08:49:15;;;;;;;32.13;18.38;;;1.70;99.90;;;;;;5027744;28;20041;-78
2020/12/26 08:51:45;;;;;;;122.50;59.08;;;1.70;99.90;;;;;;5013698;28;20037;-78
2020/12/26 08:54:22;;;;;;;249.05;118.90;;;1.80;99.90;;;;;;5013963;28;20033;-78
2020/12/26 08:56:49;;;;;;;44.00;24.70;;;1.90;99.90;;;;;;5013880;28;20493;-78
2020/12/26 08:59:29;;;;;;;27.13;15.07;;;1.90;99.90;;;;;;5020153;28;20057;-79
2020/12/26 09:01:56;;;;;;;22.40;14.43;;;1.90;99.90;;;;;;5023979;28;20607;-79
2020/12/26 09:04:23;;;;;;;216.20;96.65;;;2.00;99.90;;;;;;5014497;28;20034;-78
2020/12/26 09:06:49;;;;;;;42.05;21.13;;;2.10;99.90;;;;;;5025027;28;20403;-78
2020/12/26 09:09:17;;;;;;;30.27;17.75;;;2.10;99.90;;;;;;5014388;28;20045;-78
2020/12/26 09:11:44;;;;;;;54.90;28.30;;;2.20;99.90;;;;;;5013702;28;20050;-79
2020/12/26 09:14:20;;;;;;;183.10;83.10;;;2.30;99.90;;;;;;5013958;28;20030;-79
2020/12/26 09:16:55;;;;;;;95.65;44.95;;;2.40;99.90;;;;;;5013285;28;20045;-79
2020/12/26 09:19:21;;;;;;;27.88;15.38;;;2.50;99.90;;;;;;5013830;28;20048;-78
2020/12/26 09:21:48;;;;;;;44.05;20.25;;;2.50;99.90;;;;;;5012604;28;20041;-79
2020/12/26 09:24:21;;;;;;;78.60;34.40;;;2.70;99.90;;;;;;5020938;28;20029;-77
2020/12/26 09:26:48;;;;;;;70.43;29.13;;;2.70;99.90;;;;;;5011096;28;20049;-77
2020/12/26 09:29:24;;;;;;;23.73;11.70;;;2.80;99.90;;;;;;5013909;28;20034;-76
2020/12/26 09:31:52;;;;;;;15.32;8.55;;;2.80;99.90;;;;;;5011758;28;20541;-77
2020/12/26 09:34:23;;;;;;;29.88;15.82;;;2.70;99.90;;;;;;5013409;28;20379;-75
2020/12/26 09:37:09;;;;;;;17.98;9.70;;;2.80;99.90;;;;;;5016908;28;20034;-79
2020/12/26 09:39:37;;;;;;;63.63;33.08;;;2.90;99.90;;;;;;5013061;28;20045;-77
2020/12/26 09:42:04;;;;;;;30.35;17.85;;;3.00;99.90;;;;;;5027694;28;20407;-77
2020/12/26 09:44:30;;;;;;;24.08;13.77;;;3.20;99.90;;;;;;5012959;28;20045;-77
2020/12/26 09:47:01;;;;;;;15.40;9.07;;;3.20;99.90;;;;;;5011324;28;20125;-77
2020/12/26 09:49:28;;;;;;;14.38;8.85;;;3.30;99.90;;;;;;5013282;28;20038;-77
2020/12/26 09:51:54;;;;;;;13.45;7.75;;;3.40;99.90;;;;;;5011213;28;20034;-77
2020/12/26 09:54:20;;;;;;;10.70;6.35;;;3.40;99.90;;;;;;5013013;28;20030;-77
2020/12/26 09:56:46;;;;;;;13.27;6.05;;;3.20;99.90;;;;;;5012800;28;20044;-77
2020/12/26 09:59:13;;;;;;;11.48;7.40;;;3.10;99.90;;;;;;5013448;28;20046;-77
2020/12/26 10:01:39;;;;;;;12.77;7.00;;;3.10;99.90;;;;;;5012361;28;20030;-78
2020/12/26 10:04:05;;;;;;;13.15;7.07;;;3.10;99.90;;;;;;5012715;28;20033;-78
2020/12/26 10:06:32;;;;;;;12.90;6.25;;;3.20;99.90;;;;;;5013284;28;20038;-78
2020/12/26 10:08:58;;;;;;;11.55;6.60;;;3.10;99.90;;;;;;5027641;28;20038;-78
2020/12/26 10:11:24;;;;;;;16.60;7.15;;;3.10;99.90;;;;;;5012554;28;20059;-79
2020/12/26 10:13:50;;;;;;;20.35;8.85;;;3.10;99.90;;;;;;5027850;28;20042;-78
2020/12/26 10:16:18;;;;;;;10.70;6.05;;;3.10;99.90;;;;;;5024003;28;20033;-78
2020/12/26 10:18:45;;;;;;;12.70;7.30;;;3.30;99.90;;;;;;5024872;28;20045;-78
2020/12/26 10:21:15;;;;;;;11.25;5.57;;;3.40;99.90;;;;;;5022302;28;20059;-78
2020/12/26 10:23:42;;;;;;;12.23;5.85;;;3.40;99.90;;;;;;5025299;28;20048;-75
2020/12/26 10:26:08;;;;;;;13.55;6.90;;;3.50;99.90;;;;;;5018575;28;20041;-72
2020/12/26 10:28:34;;;;;;;15.55;6.68;;;3.60;99.90;;;;;;5031859;28;20044;-75
2020/12/26 10:31:02;;;;;;;13.13;7.32;;;3.60;99.90;;;;;;5012714;28;20467;-74
2020/12/26 10:33:28;;;;;;;17.90;7.13;;;3.70;99.90;;;;;;5012739;28;20030;-72
2020/12/26 10:35:54;;;;;;;13.18;6.60;;;3.80;99.90;;;;;;5011053;28;20038;-72
2020/12/26 10:38:21;;;;;;;10.20;5.93;;;3.80;99.90;;;;;;5012398;28;20041;-72
2020/12/26 10:40:47;;;;;;;15.48;6.63;;;4.00;99.90;;;;;;5012033;28;20026;-72
2020/12/26 10:43:16;;;;;;;16.80;6.70;;;4.20;99.90;;;;;;5012793;28;20046;-72
2020/12/26 10:45:43;;;;;;;11.73;7.18;;;4.40;99.90;;;;;;5013344;28;20037;-72
2020/12/26 10:48:10;;;;;;;9.85;6.03;;;4.60;99.90;;;;;;5027853;28;20037;-73
2020/12/26 10:50:36;;;;;;;14.05;6.57;;;4.70;99.90;;;;;;5012353;28;20041;-77
2020/12/26 10:53:02;;;;;;;13.05;6.30;;;4.90;99.90;;;;;;5047782;28;20029;-76
2020/12/26 10:55:29;;;;;;;11.00;6.32;;;5.00;99.90;;;;;;5013432;28;20391;-76
2020/12/26 10:57:55;;;;;;;12.32;6.28;;;5.20;99.90;;;;;;5010440;28;20053;-76
2020/12/26 11:00:21;;;;;;;9.93;5.80;;;5.20;99.90;;;;;;5012000;28;20467;-75
2020/12/26 11:02:48;;;;;;;10.52;6.00;;;5.10;99.90;;;;;;5011957;28;20026;-76
2020/12/26 11:05:14;;;;;;;10.52;5.82;;;5.00;99.90;;;;;;5026636;28;20022;-76
2020/12/26 11:07:41;;;;;;;15.55;7.07;;;5.10;99.90;;;;;;5010278;28;20037;-76
2020/12/26 11:10:08;;;;;;;10.73;6.47;;;5.00;99.90;;;;;;5011914;28;20387;-76
2020/12/26 11:12:34;;;;;;;12.80;6.65;;;5.10;99.90;;;;;;5012253;28;20033;-75
2020/12/26 11:15:00;;;;;;;15.10;8.63;;;5.20;99.90;;;;;;4994814;28;20480;-76
2020/12/26 11:17:27;;;;;;;14.05;8.15;;;5.30;99.90;;;;;;5011850;28;20041;-76
2020/12/26 11:19:53;;;;;;;9.30;5.47;;;5.40;99.90;;;;;;5011828;28;20061;-75
2020/12/26 11:22:19;;;;;;;9.52;5.10;;;5.50;99.90;;;;;;5008678;28;20053;-75
2020/12/26 11:24:45;;;;;;;9.55;4.65;;;5.50;99.90;;;;;;5025373;28;20034;-76
2020/12/26 11:27:12;;;;;;;10.75;4.22;;;5.30;99.90;;;;;;5013171;28;20052;-75
2020/12/26 11:29:38;;;;;;;10.82;5.75;;;5.20;99.90;;;;;;5011269;28;20048;-76
2020/12/26 11:32:04;;;;;;;11.30;6.10;;;5.10;99.90;;;;;;5012053;28;20052;-75
2020/12/26 11:34:30;;;;;;;6.65;4.43;;;5.10;99.90;;;;;;5026928;28;20038;-76
2020/12/26 11:36:57;;;;;;;10.00;6.00;;;5.00;99.90;;;;;;5011420;28;20034;-76
2020/12/26 11:39:23;;;;;;;17.70;7.38;;;4.90;99.90;;;;;;4994923;28;20049;-75
2020/12/26 11:41:49;;;;;;;11.02;5.82;;;4.90;99.90;;;;;;5011149;28;20123;-76
2020/12/26 11:44:15;;;;;;;16.63;6.70;;;4.90;99.90;;;;;;5011704;28;20038;-75
2020/12/26 11:46:42;;;;;;;17.48;7.38;;;4.90;99.90;;;;;;5026042;28;20154;-76
2020/12/26 11:49:08;;;;;;;11.73;6.00;;;4.90;99.90;;;;;;5011949;28;20030;-75
2020/12/26 11:51:34;;;;;;;16.42;6.10;;;5.00;99.90;;;;;;5011855;28;20375;-76
2020/12/26 11:54:00;;;;;;;10.15;6.45;;;5.00;99.90;;;;;;5011678;28;20451;-76
2020/12/26 11:56:28;;;;;;;12.68;6.55;;;4.90;99.90;;;;;;5011929;28;20030;-76
2020/12/26 11:58:54;;;;;;;10.10;7.20;;;5.00;99.90;;;;;;5011532;28;20053;-76
2020/12/26 12:01:23;;;;;;;13.27;6.50;;;5.10;99.90;;;;;;5010778;28;20060;-76
2020/12/26 12:03:49;;;;;;;8.45;5.47;;;5.10;99.90;;;;;;5011000;28;20034;-75
2020/12/26 12:06:15;;;;;;;18.60;8.55;;;5.10;99.90;;;;;;5011572;28;20042;-76
2020/12/26 12:08:42;;;;;;;20.90;11.90;;;5.00;99.90;;;;;;5013851;28;20045;-76
2020/12/26 12:11:10;;;;;;;91.63;41.83;;;5.00;99.90;;;;;;5015097;28;20030;-76
2020/12/26 12:13:37;;;;;;;32.58;15.52;;;5.00;99.90;;;;;;5014964;28;20041;-76
2020/12/26 12:16:03;;;;;;;26.60;14.38;;;4.90;99.90;;;;;;5014667;28;20034;-76
2020/12/26 12:18:30;;;;;;;26.30;14.80;;;5.00;99.90;;;;;;5016534;28;20062;-75
2020/12/26 12:20:56;;;;;;;42.35;21.65;;;5.00;99.90;;;;;;5027697;28;20038;-76
2020/12/26 12:23:22;;;;;;;33.10;17.67;;;5.10;99.90;;;;;;5014786;28;20026;-75
2020/12/26 12:25:48;;;;;;;20.45;11.60;;;5.20;99.90;;;;;;5013850;28;20030;-75
2020/12/26 12:28:15;;;;;;;35.65;19.60;;;5.00;99.90;;;;;;5014823;28;20034;-76
2020/12/26 12:30:41;;;;;;;39.28;21.40;;;5.00;99.90;;;;;;5014035;28;20038;-76
2020/12/26 12:33:07;;;;;;;18.00;10.68;;;4.80;99.90;;;;;;5014909;28;20037;-76
2020/12/26 12:35:33;;;;;;;31.20;16.20;;;4.70;99.90;;;;;;5014793;28;20475;-76
2020/12/26 12:38:00;;;;;;;21.00;12.50;;;4.60;99.90;;;;;;5021892;28;20061;-76
2020/12/26 12:40:26;;;;;;;26.65;13.98;;;4.50;99.90;;;;;;5018739;28;20025;-76
2020/12/26 12:42:52;;;;;;;17.40;10.23;;;4.40;99.90;;;;;;5032112;28;20076;-76